sensor_id;sensor_type;location;lat;lon;timestamp;temperature;humidity
33269;DHT22;19640;50.944;5.260;2023-02-22T00:00:52;6.40;99.90
33269;DHT22;19640;50.944;5.260;2023-02-22T00:03:21;6.20;99.90
33269;DHT22;19640;50.944;5.260;2023-02-22T00:05:52;6.00;99.90
33269;DHT22;19640;50.944;5.260;2023-02-22T00:08:21;5.90;99.90
33269;DHT22;19640;50.944;5.260;2023-02-22T00:10:49;6.00;99.90
33269;DHT22;19640;50.944;5.260;2023-02-22T00:13:18;5.90;99.90
33269;DHT22;19640;50.944;5.260;2023-02-22T00:15:47;5.70;99.90
33269;DHT22;19640;50.944;5.260;2023-02-22T00:18:15;5.80;99.90
33269;DHT22;19640;50.944;5.260;2023-02-22T00:20:41;5.90;99.90
33269;DHT22;19640;50.944;5.260;2023-02-22T00:23:12;6.00;99.90
33269;DHT22;19640;50.944;5.260;2023-02-22T00:25:38;5.90;99.90
33269;DHT22;19640;50.944;5.260;2023-02-22T00:28:04;6.00;99.90
33269;DHT22;19640;50.944;5.260;2023-02-22T00:30:31;6.10;99.90
33269;DHT22;19640;50.944;5.260;2023-02-22T00:32:58;6.40;99.90
33269;DHT22;19640;50.944;5.260;2023-02-22T00:35:26;6.50;99.90
33269;DHT22;19640;50.944;5.260;2023-02-22T00:37:54;6.40;99.90
33269;DHT22;19640;50.944;5.260;2023-02-22T00:40:23;6.50;99.90
33269;DHT22;19640;50.944;5.260;2023-02-22T00:42:49;6.30;99.90
33269;DHT22;19640;50.944;5.260;2023-02-22T00:45:17;6.30;99.90
33269;DHT22;19640;50.944;5.260;2023-02-22T00:47:43;6.40;99.90
33269;DHT22;19640;50.944;5.260;2023-02-22T00:50:09;6.50;99.90
33269;DHT22;19640;50.944;5.260;2023-02-22T00:52:36;6.50;99.90
33269;DHT22;19640;50.944;5.260;2023-02-22T00:55:03;6.70;99.90
33269;DHT22;19640;50.944;5.260;2023-02-22T00:57:30;6.80;99.90
33269;DHT22;19640;50.944;5.260;2023-02-22T00:59:56;7.00;99.90
33269;DHT22;19640;50.944;5.260;2023-02-22T01:02:21;6.50;99.90
33269;DHT22;19640;50.944;5.260;2023-02-22T01:04:47;6.30;99.90
33269;DHT22;19640;50.944;5.260;2023-02-22T01:07:13;6.50;99.90
33269;DHT22;19640;50.944;5.260;2023-02-22T01:09:39;6.50;99.90
33269;DHT22;19640;50.944;5.260;2023-02-22T01:12:06;6.60;99.90
33269;DHT22;19640;50.944;5.260;2023-02-22T01:14:32;6.60;99.90
33269;DHT22;19640;50.944;5.260;2023-02-22T01:16:58;6.50;99.90
33269;DHT22;19640;50.944;5.260;2023-02-22T01:19:24;6.50;99.90
33269;DHT22;19640;50.944;5.260;2023-02-22T01:21:50;6.40;99.90
33269;DHT22;19640;50.944;5.260;2023-02-22T01:24:17;6.40;99.90
33269;DHT22;19640;50.944;5.260;2023-02-22T01:26:47;6.40;99.90
33269;DHT22;19640;50.944;5.260;2023-02-22T01:29:14;6.40;99.90
33269;DHT22;19640;50.944;5.260;2023-02-22T01:31:41;6.50;99.90
33269;DHT22;19640;50.944;5.260;2023-02-22T01:34:10;6.30;99.90
33269;DHT22;19640;50.944;5.260;2023-02-22T01:36:37;6.20;99.90
33269;DHT22;19640;50.944;5.260;2023-02-22T01:39:04;6.20;99.90
33269;DHT22;19640;50.944;5.260;2023-02-22T01:41:31;6.20;99.90
33269;DHT22;19640;50.944;5.260;2023-02-22T01:43:56;6.30;99.90
33269;DHT22;19640;50.944;5.260;2023-02-22T01:46:24;6.50;99.90
33269;DHT22;19640;50.944;5.260;2023-02-22T01:48:53;6.20;99.90
33269;DHT22;19640;50.944;5.260;2023-02-22T01:51:46;6.40;99.90
33269;DHT22;19640;50.944;5.260;2023-02-22T01:54:21;6.60;99.90
33269;DHT22;19640;50.944;5.260;2023-02-22T01:59:43;6.70;99.90
33269;DHT22;19640;50.944;5.260;2023-02-22T02:02:11;6.60;99.90
33269;DHT22;19640;50.944;5.260;2023-02-22T02:04:38;6.70;99.90
33269;DHT22;19640;50.944;5.260;2023-02-22T02:07:09;6.60;99.90
33269;DHT22;19640;50.944;5.260;2023-02-22T02:09:57;6.50;99.90
33269;DHT22;19640;50.944;5.260;2023-02-22T02:12:23;6.50;99.90
33269;DHT22;19640;50.944;5.260;2023-02-22T02:14:50;6.60;99.90
33269;DHT22;19640;50.944;5.260;2023-02-22T02:17:18;6.60;99.90
33269;DHT22;19640;50.944;5.260;2023-02-22T02:31:01;6.20;99.90
33269;DHT22;19640;50.944;5.260;2023-02-22T02:33:47;6.10;99.90
33269;DHT22;19640;50.944;5.260;2023-02-22T02:36:33;6.00;99.90
33269;DHT22;19640;50.944;5.260;2023-02-22T02:41:39;5.60;99.90
33269;DHT22;19640;50.944;5.260;2023-02-22T02:46:58;5.30;99.90
33269;DHT22;19640;50.944;5.260;2023-02-22T02:49:45;5.20;99.90
33269;DHT22;19640;50.944;5.260;2023-02-22T02:52:14;4.80;99.90
33269;DHT22;19640;50.944;5.260;2023-02-22T02:54:41;4.90;99.90
33269;DHT22;19640;50.944;5.260;2023-02-22T02:57:08;4.80;99.90
33269;DHT22;19640;50.944;5.260;2023-02-22T02:59:35;4.50;99.90
33269;DHT22;19640;50.944;5.260;2023-02-22T03:07:47;4.90;99.90
33269;DHT22;19640;50.944;5.260;2023-02-22T03:20:57;4.60;99.90
33269;DHT22;19640;50.944;5.260;2023-02-22T03:23:36;4.60;99.90
33269;DHT22;19640;50.944;5.260;2023-02-22T03:26:28;4.40;99.90
33269;DHT22;19640;50.944;5.260;2023-02-22T03:28:55;4.40;99.90
33269;DHT22;19640;50.944;5.260;2023-02-22T03:31:28;4.50;99.90
33269;DHT22;19640;50.944;5.260;2023-02-22T03:34:05;4.80;99.90
33269;DHT22;19640;50.944;5.260;2023-02-22T03:36:39;4.80;99.90
33269;DHT22;19640;50.944;5.260;2023-02-22T03:39:10;4.80;99.90
33269;DHT22;19640;50.944;5.260;2023-02-22T03:41:44;4.60;99.90
33269;DHT22;19640;50.944;5.260;2023-02-22T03:44:15;4.80;99.90
33269;DHT22;19640;50.944;5.260;2023-02-22T03:46:45;4.80;99.90
33269;DHT22;19640;50.944;5.260;2023-02-22T03:49:32;5.00;99.90
33269;DHT22;19640;50.944;5.260;2023-02-22T03:52:01;4.80;99.90
33269;DHT22;19640;50.944;5.260;2023-02-22T03:54:27;4.60;99.90
33269;DHT22;19640;50.944;5.260;2023-02-22T03:57:00;4.50;99.90
33269;DHT22;19640;50.944;5.260;2023-02-22T03:59:29;4.40;99.90
33269;DHT22;19640;50.944;5.260;2023-02-22T04:01:56;4.40;99.90
33269;DHT22;19640;50.944;5.260;2023-02-22T04:04:23;4.40;99.90
33269;DHT22;19640;50.944;5.260;2023-02-22T04:06:49;4.50;99.90
33269;DHT22;19640;50.944;5.260;2023-02-22T04:09:16;4.40;99.90
33269;DHT22;19640;50.944;5.260;2023-02-22T04:11:42;4.30;99.90
33269;DHT22;19640;50.944;5.260;2023-02-22T04:14:08;4.30;99.90
33269;DHT22;19640;50.944;5.260;2023-02-22T04:16:33;4.20;99.90
33269;DHT22;19640;50.944;5.260;2023-02-22T04:18:59;4.30;99.90
33269;DHT22;19640;50.944;5.260;2023-02-22T04:21:25;4.40;99.90
33269;DHT22;19640;50.944;5.260;2023-02-22T04:23:51;4.30;99.90
33269;DHT22;19640;50.944;5.260;2023-02-22T04:26:17;4.30;99.90
33269;DHT22;19640;50.944;5.260;2023-02-22T04:28:42;4.40;99.90
33269;DHT22;19640;50.944;5.260;2023-02-22T04:31:08;4.40;99.90
33269;DHT22;19640;50.944;5.260;2023-02-22T04:33:34;4.50;99.90
33269;DHT22;19640;50.944;5.260;2023-02-22T04:35:59;4.50;99.90
33269;DHT22;19640;50.944;5.260;2023-02-22T04:38:25;4.50;99.90
33269;DHT22;19640;50.944;5.260;2023-02-22T04:40:52;4.70;99.90
33269;DHT22;19640;50.944;5.260;2023-02-22T04:43:18;4.60;99.90
33269;DHT22;19640;50.944;5.260;2023-02-22T04:45:43;4.50;99.90
33269;DHT22;19640;50.944;5.260;2023-02-22T04:48:09;4.30;99.90
33269;DHT22;19640;50.944;5.260;2023-02-22T04:50:35;4.40;99.90
33269;DHT22;19640;50.944;5.260;2023-02-22T04:53:01;4.30;99.90
33269;DHT22;19640;50.944;5.260;2023-02-22T04:55:26;4.20;99.90
33269;DHT22;19640;50.944;5.260;2023-02-22T04:57:53;4.20;99.90
33269;DHT22;19640;50.944;5.260;2023-02-22T05:00:19;4.20;99.90
33269;DHT22;19640;50.944;5.260;2023-02-22T05:02:46;4.30;99.90
33269;DHT22;19640;50.944;5.260;2023-02-22T05:05:14;4.40;99.90
33269;DHT22;19640;50.944;5.260;2023-02-22T05:07:40;4.40;99.90
33269;DHT22;19640;50.944;5.260;2023-02-22T05:10:08;4.40;99.90
33269;DHT22;19640;50.944;5.260;2023-02-22T05:12:34;4.40;99.90
33269;DHT22;19640;50.944;5.260;2023-02-22T05:15:00;4.60;99.90
33269;DHT22;19640;50.944;5.260;2023-02-22T05:17:25;4.60;99.90
33269;DHT22;19640;50.944;5.260;2023-02-22T05:19:52;4.40;99.90
33269;DHT22;19640;50.944;5.260;2023-02-22T05:22:17;4.40;99.90
33269;DHT22;19640;50.944;5.260;2023-02-22T05:24:43;4.30;99.90
33269;DHT22;19640;50.944;5.260;2023-02-22T05:27:09;4.30;99.90
33269;DHT22;19640;50.944;5.260;2023-02-22T05:29:36;4.30;99.90
33269;DHT22;19640;50.944;5.260;2023-02-22T05:32:03;4.20;99.90
33269;DHT22;19640;50.944;5.260;2023-02-22T05:34:29;4.30;99.90
33269;DHT22;19640;50.944;5.260;2023-02-22T05:36:55;4.30;99.90
33269;DHT22;19640;50.944;5.260;2023-02-22T05:39:21;4.30;99.90
33269;DHT22;19640;50.944;5.260;2023-02-22T05:41:46;4.30;99.90
33269;DHT22;19640;50.944;5.260;2023-02-22T05:44:12;4.30;99.90
33269;DHT22;19640;50.944;5.260;2023-02-22T05:46:38;4.30;99.90
33269;DHT22;19640;50.944;5.260;2023-02-22T05:49:03;4.30;99.90
33269;DHT22;19640;50.944;5.260;2023-02-22T05:51:29;4.50;99.90
33269;DHT22;19640;50.944;5.260;2023-02-22T05:53:55;4.60;99.90
33269;DHT22;19640;50.944;5.260;2023-02-22T05:56:22;4.70;99.90
33269;DHT22;19640;50.944;5.260;2023-02-22T05:58:48;4.70;99.90
33269;DHT22;19640;50.944;5.260;2023-02-22T06:01:14;4.70;99.90
33269;DHT22;19640;50.944;5.260;2023-02-22T06:03:40;4.70;99.90
33269;DHT22;19640;50.944;5.260;2023-02-22T06:06:06;4.70;99.90
33269;DHT22;19640;50.944;5.260;2023-02-22T06:08:32;4.60;99.90
33269;DHT22;19640;50.944;5.260;2023-02-22T06:10:58;4.70;99.90
33269;DHT22;19640;50.944;5.260;2023-02-22T06:13:23;4.80;99.90
33269;DHT22;19640;50.944;5.260;2023-02-22T06:15:49;4.70;99.90
33269;DHT22;19640;50.944;5.260;2023-02-22T06:18:15;4.60;99.90
33269;DHT22;19640;50.944;5.260;2023-02-22T06:20:40;4.50;99.90
33269;DHT22;19640;50.944;5.260;2023-02-22T06:23:06;4.60;99.90
33269;DHT22;19640;50.944;5.260;2023-02-22T06:25:32;4.70;99.90
33269;DHT22;19640;50.944;5.260;2023-02-22T06:28:02;4.70;99.90
33269;DHT22;19640;50.944;5.260;2023-02-22T06:30:29;4.90;99.90
33269;DHT22;19640;50.944;5.260;2023-02-22T06:32:55;5.00;99.90
33269;DHT22;19640;50.944;5.260;2023-02-22T06:35:21;5.00;99.90
33269;DHT22;19640;50.944;5.260;2023-02-22T06:37:47;5.10;99.90
33269;DHT22;19640;50.944;5.260;2023-02-22T06:40:13;5.00;99.90
33269;DHT22;19640;50.944;5.260;2023-02-22T06:42:40;4.90;99.90
33269;DHT22;19640;50.944;5.260;2023-02-22T06:45:06;4.70;99.90
33269;DHT22;19640;50.944;5.260;2023-02-22T06:47:32;4.50;99.90
33269;DHT22;19640;50.944;5.260;2023-02-22T06:49:58;4.40;99.90
33269;DHT22;19640;50.944;5.260;2023-02-22T06:52:25;4.40;99.90
33269;DHT22;19640;50.944;5.260;2023-02-22T06:54:51;4.50;99.90
33269;DHT22;19640;50.944;5.260;2023-02-22T06:57:17;4.50;99.90
33269;DHT22;19640;50.944;5.260;2023-02-22T06:59:43;4.50;99.90
33269;DHT22;19640;50.944;5.260;2023-02-22T07:02:10;4.60;99.90
33269;DHT22;19640;50.944;5.260;2023-02-22T07:04:36;4.70;99.90
33269;DHT22;19640;50.944;5.260;2023-02-22T07:07:02;4.90;99.90
33269;DHT22;19640;50.944;5.260;2023-02-22T07:09:28;4.80;99.90
33269;DHT22;19640;50.944;5.260;2023-02-22T07:11:54;4.90;99.90
33269;DHT22;19640;50.944;5.260;2023-02-22T07:14:20;5.10;99.90
33269;DHT22;19640;50.944;5.260;2023-02-22T07:16:46;5.10;99.90
33269;DHT22;19640;50.944;5.260;2023-02-22T07:19:11;5.30;99.90
33269;DHT22;19640;50.944;5.260;2023-02-22T07:21:37;5.10;99.90
33269;DHT22;19640;50.944;5.260;2023-02-22T07:24:03;5.00;99.90
33269;DHT22;19640;50.944;5.260;2023-02-22T07:26:29;4.90;99.90
33269;DHT22;19640;50.944;5.260;2023-02-22T07:28:54;5.10;99.90
33269;DHT22;19640;50.944;5.260;2023-02-22T07:31:20;5.20;99.90
33269;DHT22;19640;50.944;5.260;2023-02-22T07:33:46;5.10;99.90
33269;DHT22;19640;50.944;5.260;2023-02-22T07:36:13;5.00;99.90
33269;DHT22;19640;50.944;5.260;2023-02-22T07:38:42;5.10;99.90
33269;DHT22;19640;50.944;5.260;2023-02-22T07:41:08;5.10;99.90
33269;DHT22;19640;50.944;5.260;2023-02-22T07:43:34;5.00;99.90
33269;DHT22;19640;50.944;5.260;2023-02-22T07:46:00;5.00;99.90
33269;DHT22;19640;50.944;5.260;2023-02-22T07:48:29;5.00;99.90
33269;DHT22;19640;50.944;5.260;2023-02-22T07:50:55;5.30;99.90
33269;DHT22;19640;50.944;5.260;2023-02-22T07:53:26;5.50;99.90
33269;DHT22;19640;50.944;5.260;2023-02-22T07:55:56;5.30;99.90
33269;DHT22;19640;50.944;5.260;2023-02-22T07:58:24;5.30;99.90
33269;DHT22;19640;50.944;5.260;2023-02-22T08:00:50;5.40;99.90
33269;DHT22;19640;50.944;5.260;2023-02-22T08:03:18;5.60;99.90
33269;DHT22;19640;50.944;5.260;2023-02-22T08:05:46;5.60;99.90
33269;DHT22;19640;50.944;5.260;2023-02-22T08:08:13;5.70;99.90
33269;DHT22;19640;50.944;5.260;2023-02-22T08:10:41;5.50;99.90
33269;DHT22;19640;50.944;5.260;2023-02-22T08:13:07;5.60;99.90
33269;DHT22;19640;50.944;5.260;2023-02-22T08:15:35;5.90;99.90
33269;DHT22;19640;50.944;5.260;2023-02-22T08:18:04;6.30;99.90
33269;DHT22;19640;50.944;5.260;2023-02-22T08:20:30;6.40;99.90
33269;DHT22;19640;50.944;5.260;2023-02-22T08:22:56;6.30;99.90
33269;DHT22;19640;50.944;5.260;2023-02-22T08:25:24;6.60;99.90
33269;DHT22;19640;50.944;5.260;2023-02-22T08:27:52;6.80;99.90
33269;DHT22;19640;50.944;5.260;2023-02-22T08:30:23;6.90;99.90
33269;DHT22;19640;50.944;5.260;2023-02-22T08:32:49;6.90;99.90
33269;DHT22;19640;50.944;5.260;2023-02-22T08:35:17;7.00;99.90
33269;DHT22;19640;50.944;5.260;2023-02-22T08:37:45;6.90;99.90
33269;DHT22;19640;50.944;5.260;2023-02-22T08:40:12;6.80;99.90
33269;DHT22;19640;50.944;5.260;2023-02-22T08:42:38;6.90;99.90
33269;DHT22;19640;50.944;5.260;2023-02-22T08:45:04;7.00;99.90
33269;DHT22;19640;50.944;5.260;2023-02-22T08:47:29;6.80;99.90
33269;DHT22;19640;50.944;5.260;2023-02-22T08:49:55;6.80;99.90
33269;DHT22;19640;50.944;5.260;2023-02-22T08:52:21;6.90;99.90
33269;DHT22;19640;50.944;5.260;2023-02-22T08:54:47;6.90;99.90
33269;DHT22;19640;50.944;5.260;2023-02-22T08:57:13;7.00;99.90
33269;DHT22;19640;50.944;5.260;2023-02-22T08:59:39;7.20;99.90
33269;DHT22;19640;50.944;5.260;2023-02-22T09:02:05;7.60;99.90
33269;DHT22;19640;50.944;5.260;2023-02-22T09:04:35;7.70;99.90
33269;DHT22;19640;50.944;5.260;2023-02-22T09:07:01;7.70;99.90
33269;DHT22;19640;50.944;5.260;2023-02-22T09:09:26;7.80;99.90
33269;DHT22;19640;50.944;5.260;2023-02-22T09:11:52;7.90;99.90
33269;DHT22;19640;50.944;5.260;2023-02-22T09:14:17;8.10;99.90
33269;DHT22;19640;50.944;5.260;2023-02-22T09:16:43;8.50;99.90
33269;DHT22;19640;50.944;5.260;2023-02-22T09:19:10;9.00;99.90
33269;DHT22;19640;50.944;5.260;2023-02-22T09:21:35;9.20;99.90
33269;DHT22;19640;50.944;5.260;2023-02-22T09:24:01;9.40;99.90
33269;DHT22;19640;50.944;5.260;2023-02-22T09:26:37;9.30;99.90
33269;DHT22;19640;50.944;5.260;2023-02-22T09:29:07;9.30;99.90
33269;DHT22;19640;50.944;5.260;2023-02-22T09:31:37;9.40;99.90
33269;DHT22;19640;50.944;5.260;2023-02-22T09:34:05;9.50;99.90
33269;DHT22;19640;50.944;5.260;2023-02-22T09:36:48;9.70;99.90
33269;DHT22;19640;50.944;5.260;2023-02-22T09:39:17;9.80;99.90
33269;DHT22;19640;50.944;5.260;2023-02-22T09:41:49;9.90;99.90
33269;DHT22;19640;50.944;5.260;2023-02-22T09:46:49;10.20;99.90
33269;DHT22;19640;50.944;5.260;2023-02-22T09:49:20;10.30;99.90
33269;DHT22;19640;50.944;5.260;2023-02-22T09:52:11;10.30;99.90
33269;DHT22;19640;50.944;5.260;2023-02-22T09:54:40;10.50;99.90
33269;DHT22;19640;50.944;5.260;2023-02-22T09:57:28;10.10;99.90
33269;DHT22;19640;50.944;5.260;2023-02-22T10:00:16;10.10;99.90
33269;DHT22;19640;50.944;5.260;2023-02-22T10:05:35;10.50;99.90
33269;DHT22;19640;50.944;5.260;2023-02-22T10:08:11;10.70;99.90
33269;DHT22;19640;50.944;5.260;2023-02-22T10:10:41;10.90;99.90
33269;DHT22;19640;50.944;5.260;2023-02-22T10:16:05;10.90;99.90
33269;DHT22;19640;50.944;5.260;2023-02-22T10:27:21;10.80;99.90
33269;DHT22;19640;50.944;5.260;2023-02-22T10:32:46;11.10;99.90
33269;DHT22;19640;50.944;5.260;2023-02-22T10:35:21;11.20;99.90
33269;DHT22;19640;50.944;5.260;2023-02-22T10:37:51;11.50;99.90
33269;DHT22;19640;50.944;5.260;2023-02-22T10:40:23;11.80;99.90
33269;DHT22;19640;50.944;5.260;2023-02-22T10:43:07;12.10;99.90
33269;DHT22;19640;50.944;5.260;2023-02-22T10:45:34;12.30;99.90
33269;DHT22;19640;50.944;5.260;2023-02-22T10:48:14;12.50;99.90
33269;DHT22;19640;50.944;5.260;2023-02-22T10:50:44;12.20;99.90
33269;DHT22;19640;50.944;5.260;2023-02-22T10:53:11;12.20;99.90
33269;DHT22;19640;50.944;5.260;2023-02-22T10:56:33;12.40;99.90
33269;DHT22;19640;50.944;5.260;2023-02-22T10:58:55;12.50;99.90
33269;DHT22;19640;50.944;5.260;2023-02-22T11:06:39;12.90;99.90
33269;DHT22;19640;50.944;5.260;2023-02-22T11:09:08;12.90;99.90
33269;DHT22;19640;50.944;5.260;2023-02-22T11:11:39;13.00;99.90
33269;DHT22;19640;50.944;5.260;2023-02-22T11:14:05;12.80;99.90
33269;DHT22;19640;50.944;5.260;2023-02-22T11:16:48;12.80;99.90
33269;DHT22;19640;50.944;5.260;2023-02-22T11:21:40;13.00;99.90
33269;DHT22;19640;50.944;5.260;2023-02-22T11:24:13;13.00;99.90
33269;DHT22;19640;50.944;5.260;2023-02-22T11:26:45;12.90;99.90
33269;DHT22;19640;50.944;5.260;2023-02-22T11:29:31;13.00;99.90
33269;DHT22;19640;50.944;5.260;2023-02-22T11:32:00;13.30;99.90
33269;DHT22;19640;50.944;5.260;2023-02-22T11:34:36;13.40;99.90
33269;DHT22;19640;50.944;5.260;2023-02-22T11:37:15;13.40;99.90
33269;DHT22;19640;50.944;5.260;2023-02-22T11:39:42;13.20;99.90
33269;DHT22;19640;50.944;5.260;2023-02-22T11:42:26;13.20;99.90
33269;DHT22;19640;50.944;5.260;2023-02-22T11:45:24;13.10;99.90
33269;DHT22;19640;50.944;5.260;2023-02-22T11:47:54;13.20;99.90
33269;DHT22;19640;50.944;5.260;2023-02-22T12:10:15;12.80;99.90
33269;DHT22;19640;50.944;5.260;2023-02-22T12:18:57;12.50;99.90
33269;DHT22;19640;50.944;5.260;2023-02-22T12:21:30;12.20;99.90
33269;DHT22;19640;50.944;5.260;2023-02-22T12:24:05;12.20;99.90
33269;DHT22;19640;50.944;5.260;2023-02-22T12:36:47;12.50;99.90
33269;DHT22;19640;50.944;5.260;2023-02-22T12:42:29;12.30;99.90
33269;DHT22;19640;50.944;5.260;2023-02-22T12:50:57;11.80;99.90
33269;DHT22;19640;50.944;5.260;2023-02-22T12:53:27;11.70;99.90
33269;DHT22;19640;50.944;5.260;2023-02-22T12:58:52;11.50;99.90
33269;DHT22;19640;50.944;5.260;2023-02-22T13:01:25;11.50;99.90
33269;DHT22;19640;50.944;5.260;2023-02-22T13:03:53;11.60;99.90
33269;DHT22;19640;50.944;5.260;2023-02-22T13:09:13;11.50;99.90
33269;DHT22;19640;50.944;5.260;2023-02-22T13:11:51;11.60;99.90
33269;DHT22;19640;50.944;5.260;2023-02-22T13:14:46;11.80;99.90
33269;DHT22;19640;50.944;5.260;2023-02-22T13:17:23;11.70;99.90
33269;DHT22;19640;50.944;5.260;2023-02-22T13:23:04;11.90;99.90
33269;DHT22;19640;50.944;5.260;2023-02-22T13:25:52;12.00;99.90
33269;DHT22;19640;50.944;5.260;2023-02-22T13:43:04;12.10;99.90
33269;DHT22;19640;50.944;5.260;2023-02-22T13:49:25;12.20;99.90
33269;DHT22;19640;50.944;5.260;2023-02-22T13:51:58;12.20;99.90
33269;DHT22;19640;50.944;5.260;2023-02-22T13:54:28;12.40;99.90
33269;DHT22;19640;50.944;5.260;2023-02-22T13:56:59;12.20;99.90
33269;DHT22;19640;50.944;5.260;2023-02-22T13:59:33;12.20;99.90
33269;DHT22;19640;50.944;5.260;2023-02-22T14:02:00;12.10;99.90
33269;DHT22;19640;50.944;5.260;2023-02-22T14:07:00;12.10;99.90
33269;DHT22;19640;50.944;5.260;2023-02-22T14:09:54;12.10;99.90
33269;DHT22;19640;50.944;5.260;2023-02-22T14:17:59;12.10;99.90
33269;DHT22;19640;50.944;5.260;2023-02-22T14:25:49;12.00;99.90
33269;DHT22;19640;50.944;5.260;2023-02-22T14:33:57;11.90;99.90
33269;DHT22;19640;50.944;5.260;2023-02-22T14:36:43;11.70;99.90
33269;DHT22;19640;50.944;5.260;2023-02-22T14:42:22;11.70;99.90
33269;DHT22;19640;50.944;5.260;2023-02-22T14:50:45;11.90;99.90
33269;DHT22;19640;50.944;5.260;2023-02-22T14:55:58;12.00;99.90
33269;DHT22;19640;50.944;5.260;2023-02-22T14:58:41;11.90;99.90
33269;DHT22;19640;50.944;5.260;2023-02-22T15:01:22;12.00;99.90
33269;DHT22;19640;50.944;5.260;2023-02-22T15:03:48;12.00;99.90
33269;DHT22;19640;50.944;5.260;2023-02-22T15:06:20;12.00;99.90
33269;DHT22;19640;50.944;5.260;2023-02-22T15:08:48;11.90;99.90
33269;DHT22;19640;50.944;5.260;2023-02-22T15:11:29;11.90;99.90
33269;DHT22;19640;50.944;5.260;2023-02-22T15:13:56;12.10;99.90
33269;DHT22;19640;50.944;5.260;2023-02-22T15:16:24;12.00;99.90
33269;DHT22;19640;50.944;5.260;2023-02-22T15:18:53;11.80;99.90
33269;DHT22;19640;50.944;5.260;2023-02-22T15:21:23;11.70;99.90
33269;DHT22;19640;50.944;5.260;2023-02-22T15:23:51;11.80;99.90
33269;DHT22;19640;50.944;5.260;2023-02-22T15:26:36;11.80;99.90
33269;DHT22;19640;50.944;5.260;2023-02-22T15:31:41;11.80;99.90
33269;DHT22;19640;50.944;5.260;2023-02-22T15:36:40;11.80;99.90
33269;DHT22;19640;50.944;5.260;2023-02-22T15:39:27;11.80;99.90
33269;DHT22;19640;50.944;5.260;2023-02-22T15:42:26;11.80;99.90
33269;DHT22;19640;50.944;5.260;2023-02-22T15:44:54;11.90;99.90
33269;DHT22;19640;50.944;5.260;2023-02-22T15:55:45;11.70;99.90
33269;DHT22;19640;50.944;5.260;2023-02-22T16:00:46;11.70;99.90
33269;DHT22;19640;50.944;5.260;2023-02-22T16:03:19;11.60;99.90
33269;DHT22;19640;50.944;5.260;2023-02-22T16:05:50;11.60;99.90
33269;DHT22;19640;50.944;5.260;2023-02-22T16:08:21;11.70;99.90
33269;DHT22;19640;50.944;5.260;2023-02-22T16:11:14;11.60;99.90
33269;DHT22;19640;50.944;5.260;2023-02-22T16:13:41;11.60;99.90
33269;DHT22;19640;50.944;5.260;2023-02-22T16:18:42;11.60;99.90
33269;DHT22;19640;50.944;5.260;2023-02-22T16:21:09;11.60;99.90
33269;DHT22;19640;50.944;5.260;2023-02-22T16:23:51;11.70;99.90
33269;DHT22;19640;50.944;5.260;2023-02-22T16:26:25;11.70;99.90
33269;DHT22;19640;50.944;5.260;2023-02-22T16:28:54;11.60;99.90
33269;DHT22;19640;50.944;5.260;2023-02-22T16:31:26;11.60;99.90
33269;DHT22;19640;50.944;5.260;2023-02-22T16:33:53;11.50;99.90
33269;DHT22;19640;50.944;5.260;2023-02-22T16:36:22;11.50;99.90
33269;DHT22;19640;50.944;5.260;2023-02-22T16:38:48;11.50;99.90
33269;DHT22;19640;50.944;5.260;2023-02-22T16:41:16;11.40;99.90
33269;DHT22;19640;50.944;5.260;2023-02-22T16:43:46;11.40;99.90
33269;DHT22;19640;50.944;5.260;2023-02-22T16:46:12;11.40;99.90
33269;DHT22;19640;50.944;5.260;2023-02-22T16:48:41;11.30;99.90
33269;DHT22;19640;50.944;5.260;2023-02-22T16:51:16;11.30;99.90
33269;DHT22;19640;50.944;5.260;2023-02-22T16:53:42;11.30;99.90
33269;DHT22;19640;50.944;5.260;2023-02-22T16:56:11;11.40;99.90
33269;DHT22;19640;50.944;5.260;2023-02-22T16:58:41;11.50;99.90
33269;DHT22;19640;50.944;5.260;2023-02-22T17:01:07;11.60;99.90
33269;DHT22;19640;50.944;5.260;2023-02-22T17:03:34;11.70;99.90
33269;DHT22;19640;50.944;5.260;2023-02-22T17:06:00;11.60;99.90
33269;DHT22;19640;50.944;5.260;2023-02-22T17:08:26;11.70;99.90
33269;DHT22;19640;50.944;5.260;2023-02-22T17:10:52;11.70;99.90
33269;DHT22;19640;50.944;5.260;2023-02-22T17:13:23;11.60;99.90
33269;DHT22;19640;50.944;5.260;2023-02-22T17:15:49;11.70;99.90
33269;DHT22;19640;50.944;5.260;2023-02-22T17:18:17;11.80;99.90
33269;DHT22;19640;50.944;5.260;2023-02-22T17:20:50;11.50;99.90
33269;DHT22;19640;50.944;5.260;2023-02-22T17:23:17;11.50;99.90
33269;DHT22;19640;50.944;5.260;2023-02-22T17:25:54;11.50;99.90
33269;DHT22;19640;50.944;5.260;2023-02-22T17:28:21;11.50;99.90
33269;DHT22;19640;50.944;5.260;2023-02-22T17:30:48;11.40;99.90
33269;DHT22;19640;50.944;5.260;2023-02-22T17:33:17;11.40;99.90
33269;DHT22;19640;50.944;5.260;2023-02-22T17:35:42;11.20;99.90
33269;DHT22;19640;50.944;5.260;2023-02-22T17:38:09;11.30;99.90
33269;DHT22;19640;50.944;5.260;2023-02-22T17:40:37;11.20;99.90
33269;DHT22;19640;50.944;5.260;2023-02-22T17:43:04;11.20;99.90
33269;DHT22;19640;50.944;5.260;2023-02-22T17:45:34;11.10;99.90
33269;DHT22;19640;50.944;5.260;2023-02-22T17:48:02;11.10;99.90
33269;DHT22;19640;50.944;5.260;2023-02-22T17:50:27;11.10;99.90
33269;DHT22;19640;50.944;5.260;2023-02-22T17:52:56;11.20;99.90
33269;DHT22;19640;50.944;5.260;2023-02-22T17:55:22;11.00;99.90
33269;DHT22;19640;50.944;5.260;2023-02-22T17:57:52;11.10;99.90
33269;DHT22;19640;50.944;5.260;2023-02-22T18:00:24;11.00;99.90
33269;DHT22;19640;50.944;5.260;2023-02-22T18:02:59;10.80;99.90
33269;DHT22;19640;50.944;5.260;2023-02-22T18:05:24;10.80;99.90
33269;DHT22;19640;50.944;5.260;2023-02-22T18:07:51;10.90;99.90
33269;DHT22;19640;50.944;5.260;2023-02-22T18:10:17;11.00;99.90
33269;DHT22;19640;50.944;5.260;2023-02-22T18:12:46;10.90;99.90
33269;DHT22;19640;50.944;5.260;2023-02-22T18:15:15;11.00;99.90
33269;DHT22;19640;50.944;5.260;2023-02-22T18:17:43;11.10;99.90
33269;DHT22;19640;50.944;5.260;2023-02-22T18:20:09;11.10;99.90
33269;DHT22;19640;50.944;5.260;2023-02-22T18:22:59;11.10;99.90
33269;DHT22;19640;50.944;5.260;2023-02-22T18:25:25;11.10;99.90
33269;DHT22;19640;50.944;5.260;2023-02-22T18:27:52;11.20;99.90
33269;DHT22;19640;50.944;5.260;2023-02-22T18:30:19;11.20;99.90
33269;DHT22;19640;50.944;5.260;2023-02-22T18:32:45;11.10;99.90
33269;DHT22;19640;50.944;5.260;2023-02-22T18:35:11;11.20;99.90
33269;DHT22;19640;50.944;5.260;2023-02-22T18:37:37;11.10;99.90
33269;DHT22;19640;50.944;5.260;2023-02-22T18:40:04;11.00;99.90
33269;DHT22;19640;50.944;5.260;2023-02-22T18:42:35;11.10;99.90
33269;DHT22;19640;50.944;5.260;2023-02-22T18:45:02;11.00;99.90
33269;DHT22;19640;50.944;5.260;2023-02-22T18:47:29;10.90;99.90
33269;DHT22;19640;50.944;5.260;2023-02-22T18:49:55;11.10;99.90
33269;DHT22;19640;50.944;5.260;2023-02-22T18:52:21;11.20;99.90
33269;DHT22;19640;50.944;5.260;2023-02-22T18:54:48;11.20;99.90
33269;DHT22;19640;50.944;5.260;2023-02-22T18:57:15;11.30;99.90
33269;DHT22;19640;50.944;5.260;2023-02-22T18:59:42;11.20;99.90